Aeroporto :
LOGIN :

Iscrizione | Disclaimer

   EN    FR    IT 

 










Sommario :    VFR   VFR Marginale   IFR   IFR Intensivo   IFR Molto Intensivo
Visibilità : 
Base nubi : 
>= 8 km
>= 3000ft
5 / 8 km
1000 / 3000 ft
1500m / 5 km
500 / 1000 ft
800 / 1500m
200 / 500 ft
< 800m
< 200 ft
Simboli :   Temporali  Nebbia  Neve Forte  Precipitazioni Forti  Vento > 20 kt
SIGMETs :   Varie  Temporali  Ghiacco  Turbolenza  Onda orograficha  Ceneri Vulcaniche






- Altitudine del aeroporto : 17 ft
- Codice IATA : GRQ


EHGG - Groningen Eelde

ULTIMO METAR :
  • 011255Z AUTO 16009KT 130V190 9999 NSC 16/12 Q0999 NOSIG

METARs OBSOLETI :
  • 011225Z AUTO 15010KT 100V200 9999 FEW020 17/12 Q0999 NOSIG
  • 011155Z AUTO 14009KT 080V170 9999 NSC 17/13 Q0999 NOSIG
  • 011125Z AUTO 13008KT 090V170 9999 NSC 16/12 Q0999 NOSIG
  • 011055Z AUTO 13009KT 090V180 9999 FEW016 16/12 Q1000 NOSIG
  • 011025Z AUTO 13008KT 060V180 9999 NSC 16/12 Q1000 NOSIG

TAF TAF EHGG
Valido dal 01 a 12 ore il 02 a 18 ore UTC


011119Z 0112/0218 14011KT CAVOK
BECMG 0113/0115 7000 -RA BKN030
TEMPO 0115/0117 3500 RA SHRA BKN012 FEW020CB
PROB30
TEMPO 0115/0118 BKN008
BECMG 0117/0119 20008KT 9999 NSW
PROB40
TEMPO 0117/0121 21012G22KT 4000 SHRA SCT015CB
BECMG 0200/0203 4000 BR
PROB30 0202/0208 0400 FG BKN003
BECMG 0207/0210 10011KT 9999 NSW SCT015



MetMap, La meteo Aeronautica in un colpo d'occhio ! - Copyright ORBIFLY Dicembre 2007 - Disclaimer

ORBIFLY MET'MAP TEAM :

Programmazione e sviluppo : Alexandra Zaïnal
Concezione : Baudouin d'Aumeries
Aiuto per la programmazione : Marc-Olivier Méhu
Supporto tecnico e logistico : Manuel Goepfert
Aiuto per la traduzione : Arnaldo La Scala

Contatto : metmap@orbifly.com




FONTI E CREDITI :

   NOAA